Time;durP1;ratioP1;P1;durP2;ratioP2;P2;SDS_P1;SDS_P2;PMS_P1;PMS_P2;Temp;Humidity;BMP_temperature;BMP_pressure;BME280_temperature;BME280_humidity;BME280_pressure;Samples;Min_cycle;Max_cycle;Signal;HPM_P1;HPM_P2
2021/08/03 00:02:00;;;;;;;10.70;9.60;;;;;;;;;;5035877;28;20174;-76
2021/08/03 00:04:32;;;;;;;13.13;9.57;;;;;;;;;;5035636;28;20475;-78
2021/08/03 00:06:58;;;;;;;9.90;8.90;;;;;;;;;;5035669;28;20409;-76
2021/08/03 00:09:24;;;;;;;12.10;9.17;;;;;;;;;;5035636;28;20420;-76
2021/08/03 00:11:50;;;;;;;11.23;10.10;;;;;;;;;;5035769;28;20510;-76
2021/08/03 00:14:17;;;;;;;11.50;9.70;;;;;;;;;;5035181;28;20771;-76
2021/08/03 00:16:43;;;;;;;13.17;10.00;;;;;;;;;;5035422;28;20460;-76
2021/08/03 00:19:09;;;;;;;10.53;9.43;;;;;;;;;;5035653;28;20968;-76
2021/08/03 00:21:36;;;;;;;10.33;9.33;;;;;;;;;;5035469;28;20409;-76
2021/08/03 00:24:02;;;;;;;11.80;9.47;;;;;;;;;;5035138;28;20479;-78
2021/08/03 00:26:28;;;;;;;12.77;8.80;;;;;;;;;;5035372;28;20424;-76
2021/08/03 00:28:55;;;;;;;12.03;9.77;;;;;;;;;;5034282;28;20898;-77
2021/08/03 00:31:23;;;;;;;11.63;10.53;;;;;;;;;;5035299;28;20423;-76
2021/08/03 00:33:50;;;;;;;10.80;9.70;;;;;;;;;;5034910;28;20409;-76
2021/08/03 00:36:16;;;;;;;10.20;9.20;;;;;;;;;;5034837;28;20854;-77
2021/08/03 00:38:42;;;;;;;14.50;10.17;;;;;;;;;;5035223;28;20401;-77
2021/08/03 00:41:16;;;;;;;10.27;9.27;;;;;;;;;;5034930;28;20432;-76
2021/08/03 00:43:42;;;;;;;10.73;9.43;;;;;;;;;;5034713;28;20443;-77
2021/08/03 00:46:08;;;;;;;17.53;10.40;;;;;;;;;;5034893;28;20458;-77
2021/08/03 00:48:34;;;;;;;15.23;11.07;;;;;;;;;;5034793;28;20415;-76
2021/08/03 00:51:00;;;;;;;13.37;9.60;;;;;;;;;;5034695;28;20608;-76
2021/08/03 00:53:26;;;;;;;14.13;10.87;;;;;;;;;;5034518;28;20408;-76
2021/08/03 00:55:52;;;;;;;9.53;8.50;;;;;;;;;;5033367;28;20436;-78
2021/08/03 00:58:18;;;;;;;11.07;9.97;;;;;;;;;;5034756;28;20961;-78
2021/08/03 01:00:44;;;;;;;11.10;9.53;;;;;;;;;;5034765;28;20965;-78
2021/08/03 01:03:10;;;;;;;11.83;10.20;;;;;;;;;;5034513;28;20499;-77
2021/08/03 01:05:51;;;;;;;12.07;9.63;;;;;;;;;;5034876;28;20432;-77
2021/08/03 01:08:22;;;;;;;9.90;9.00;;;;;;;;;;5034574;28;20405;-78
2021/08/03 01:10:48;;;;;;;10.00;8.77;;;;;;;;;;5034782;28;20409;-77
2021/08/03 01:13:19;;;;;;;11.90;9.13;;;;;;;;;;5034085;28;20417;-77
2021/08/03 01:15:53;;;;;;;13.00;10.00;;;;;;;;;;5034533;28;20433;-76
2021/08/03 01:18:28;;;;;;;16.37;9.87;;;;;;;;;;5034476;28;20456;-77
2021/08/03 01:21:00;;;;;;;15.77;10.27;;;;;;;;;;5034612;28;20491;-77
2021/08/03 01:23:35;;;;;;;11.80;9.77;;;;;;;;;;5033915;28;20463;-77
2021/08/03 01:26:21;;;;;;;10.03;9.10;;;;;;;;;;5034136;28;20509;-77
2021/08/03 01:28:48;;;;;;;8.20;7.40;;;;;;;;;;5034346;28;20728;-77
2021/08/03 01:31:25;;;;;;;9.70;8.13;;;;;;;;;;5033960;28;20895;-77
2021/08/03 01:33:57;;;;;;;11.83;8.50;;;;;;;;;;5033959;28;20405;-77
2021/08/03 01:36:23;;;;;;;13.77;8.63;;;;;;;;;;5033916;28;20503;-76
2021/08/03 01:38:50;;;;;;;10.10;9.17;;;;;;;;;;5034087;28;20400;-77
2021/08/03 01:41:17;;;;;;;12.00;9.90;;;;;;;;;;5033888;28;21084;-77
2021/08/03 01:43:44;;;;;;;13.87;8.30;;;;;;;;;;5034121;28;20485;-77
2021/08/03 01:46:11;;;;;;;10.93;8.23;;;;;;;;;;5033857;28;20942;-77
2021/08/03 01:48:38;;;;;;;12.70;8.27;;;;;;;;;;5033885;28;20809;-77
2021/08/03 01:51:04;;;;;;;12.07;9.30;;;;;;;;;;5033773;28;20408;-77
2021/08/03 01:53:30;;;;;;;9.50;8.50;;;;;;;;;;5033239;28;20397;-77
2021/08/03 01:55:57;;;;;;;10.17;7.63;;;;;;;;;;5033701;28;20437;-77
2021/08/03 01:58:24;;;;;;;12.33;8.90;;;;;;;;;;5033629;28;20530;-77
2021/08/03 02:00:51;;;;;;;10.10;8.53;;;;;;;;;;5033658;28;20406;-77
2021/08/03 02:03:19;;;;;;;13.37;9.10;;;;;;;;;;5033293;28;20412;-78
2021/08/03 02:05:46;;;;;;;12.93;9.60;;;;;;;;;;5032318;28;20536;-77
2021/08/03 02:08:12;;;;;;;10.03;9.00;;;;;;;;;;5033041;28;20425;-78
2021/08/03 02:10:39;;;;;;;10.20;9.20;;;;;;;;;;5033466;28;20424;-78
2021/08/03 02:13:06;;;;;;;9.40;8.43;;;;;;;;;;5033209;28;20515;-77
2021/08/03 02:15:32;;;;;;;15.33;9.93;;;;;;;;;;5033336;28;20403;-77
2021/08/03 02:17:58;;;;;;;11.93;8.90;;;;;;;;;;5033593;28;20434;-77
2021/08/03 02:20:24;;;;;;;14.33;9.90;;;;;;;;;;5033512;28;20417;-77
2021/08/03 02:22:50;;;;;;;14.50;10.40;;;;;;;;;;5033145;28;20467;-78
2021/08/03 02:25:17;;;;;;;14.37;11.00;;;;;;;;;;5033105;28;20441;-77
2021/08/03 02:27:44;;;;;;;16.07;11.40;;;;;;;;;;5033149;28;20405;-77
2021/08/03 02:30:10;;;;;;;13.87;10.93;;;;;;;;;;5032233;28;20519;-77
2021/08/03 02:32:50;;;;;;;15.73;12.23;;;;;;;;;;5033182;28;20423;-77
2021/08/03 02:35:18;;;;;;;14.80;10.57;;;;;;;;;;5033031;28;20428;-77
2021/08/03 02:37:50;;;;;;;14.10;11.30;;;;;;;;;;5032824;28;20465;-77
2021/08/03 02:40:16;;;;;;;11.93;10.73;;;;;;;;;;5033020;28;20433;-78
2021/08/03 02:42:42;;;;;;;12.57;10.33;;;;;;;;;;5033015;28;20412;-77
2021/08/03 02:45:08;;;;;;;17.60;12.07;;;;;;;;;;5032792;28;20425;-77
2021/08/03 02:47:42;;;;;;;15.93;10.87;;;;;;;;;;5032844;28;20470;-78
2021/08/03 02:50:10;;;;;;;15.83;12.27;;;;;;;;;;5033176;28;20412;-77
2021/08/03 02:52:39;;;;;;;13.20;11.80;;;;;;;;;;5032809;28;20448;-77
2021/08/03 02:55:08;;;;;;;19.30;11.57;;;;;;;;;;5032608;28;20432;-78
2021/08/03 02:57:36;;;;;;;14.93;11.27;;;;;;;;;;5032750;28;20464;-78
2021/08/03 03:00:03;;;;;;;17.80;12.40;;;;;;;;;;5032780;28;20420;-78
2021/08/03 03:02:31;;;;;;;12.83;10.80;;;;;;;;;;5032883;28;20404;-77
2021/08/03 03:05:01;;;;;;;14.77;11.40;;;;;;;;;;5032400;28;20435;-79
2021/08/03 03:07:32;;;;;;;17.37;13.13;;;;;;;;;;5031938;28;20417;-77
2021/08/03 03:09:59;;;;;;;19.40;12.77;;;;;;;;;;5032985;28;20395;-77
2021/08/03 03:12:27;;;;;;;19.33;13.20;;;;;;;;;;5033087;28;20505;-77
2021/08/03 03:14:54;;;;;;;19.07;13.00;;;;;;;;;;5032533;28;20432;-78
2021/08/03 03:17:21;;;;;;;20.03;14.80;;;;;;;;;;5032853;28;20539;-77
2021/08/03 03:19:48;;;;;;;17.57;12.77;;;;;;;;;;5034900;28;20504;-77
2021/08/03 03:22:14;;;;;;;23.33;14.43;;;;;;;;;;5036607;28;20405;-77
2021/08/03 03:24:42;;;;;;;21.70;13.97;;;;;;;;;;5036190;28;20435;-77
2021/08/03 03:27:09;;;;;;;27.20;15.07;;;;;;;;;;5036497;28;20409;-78
2021/08/03 03:29:36;;;;;;;24.50;16.73;;;;;;;;;;5036406;28;20416;-77
2021/08/03 03:32:02;;;;;;;30.00;17.03;;;;;;;;;;5036394;28;20750;-77
2021/08/03 03:34:30;;;;;;;19.73;15.07;;;;;;;;;;5036059;28;20448;-77
2021/08/03 03:36:57;;;;;;;22.57;17.10;;;;;;;;;;5036087;28;20808;-77
2021/08/03 03:39:23;;;;;;;23.37;16.13;;;;;;;;;;5035026;28;20417;-77
2021/08/03 03:41:50;;;;;;;25.50;17.03;;;;;;;;;;5034949;28;20424;-77
2021/08/03 03:44:16;;;;;;;23.03;17.77;;;;;;;;;;5035589;28;20405;-78
2021/08/03 03:46:49;;;;;;;26.10;18.80;;;;;;;;;;5036081;28;20426;-78
2021/08/03 03:49:17;;;;;;;28.77;17.37;;;;;;;;;;5035981;28;20963;-78
2021/08/03 03:51:44;;;;;;;30.83;19.60;;;;;;;;;;5035967;28;20421;-78
2021/08/03 03:54:12;;;;;;;26.53;16.80;;;;;;;;;;5035518;28;20386;-78
2021/08/03 03:56:43;;;;;;;22.30;15.90;;;;;;;;;;5035772;28;20456;-78
2021/08/03 03:59:11;;;;;;;25.07;15.13;;;;;;;;;;5034541;28;20545;-77
2021/08/03 04:01:37;;;;;;;17.97;15.03;;;;;;;;;;5035849;28;20496;-78
2021/08/03 04:04:08;;;;;;;15.90;14.13;;;;;;;;;;5035508;28;20471;-77
2021/08/03 04:06:34;;;;;;;17.33;14.10;;;;;;;;;;5035698;28;20852;-77
2021/08/03 04:09:00;;;;;;;18.90;15.10;;;;;;;;;;5035776;28;20421;-77
2021/08/03 04:11:26;;;;;;;18.83;15.63;;;;;;;;;;5035655;28;20413;-77
2021/08/03 04:13:53;;;;;;;14.70;13.10;;;;;;;;;;5035303;28;20436;-78
2021/08/03 04:16:19;;;;;;;17.20;14.53;;;;;;;;;;5034316;28;20440;-77
2021/08/03 04:18:46;;;;;;;17.83;13.53;;;;;;;;;;5035430;28;20411;-78
2021/08/03 04:21:12;;;;;;;16.03;14.10;;;;;;;;;;5035552;28;20420;-78
2021/08/03 04:23:38;;;;;;;19.70;14.87;;;;;;;;;;5035426;28;20428;-78
2021/08/03 04:26:04;;;;;;;17.10;13.90;;;;;;;;;;5035386;28;20829;-77
2021/08/03 04:28:30;;;;;;;21.03;14.73;;;;;;;;;;5035514;28;20412;-77
2021/08/03 04:30:59;;;;;;;18.50;14.90;;;;;;;;;;5034988;28;20423;-76
2021/08/03 04:33:25;;;;;;;16.83;14.43;;;;;;;;;;5033850;28;20766;-77
2021/08/03 04:35:51;;;;;;;17.40;14.43;;;;;;;;;;5035063;28;20443;-77
2021/08/03 04:38:17;;;;;;;20.87;15.20;;;;;;;;;;5035157;28;20475;-77
2021/08/03 04:40:43;;;;;;;20.30;14.63;;;;;;;;;;5033823;28;20458;-77
2021/08/03 04:43:09;;;;;;;16.63;14.03;;;;;;;;;;5033621;28;20405;-77
2021/08/03 04:45:35;;;;;;;16.60;13.20;;;;;;;;;;5033971;28;20543;-77
2021/08/03 04:48:01;;;;;;;16.43;12.53;;;;;;;;;;5035006;28;20444;-77
2021/08/03 04:50:28;;;;;;;16.03;13.30;;;;;;;;;;5034946;28;20940;-76
2021/08/03 04:52:55;;;;;;;16.03;13.37;;;;;;;;;;5034464;28;20438;-77
2021/08/03 04:55:21;;;;;;;17.87;13.30;;;;;;;;;;5034826;28;20435;-77
2021/08/03 04:57:47;;;;;;;15.63;14.00;;;;;;;;;;5034838;28;20491;-76
2021/08/03 05:00:15;;;;;;;14.27;12.10;;;;;;;;;;5034786;28;20416;-76
2021/08/03 05:02:41;;;;;;;15.00;12.17;;;;;;;;;;5034585;28;20496;-77
2021/08/03 05:05:08;;;;;;;18.60;13.90;;;;;;;;;;5034318;28;20453;-76
2021/08/03 05:07:34;;;;;;;15.30;12.97;;;;;;;;;;5033453;28;20396;-76
2021/08/03 05:10:10;;;;;;;17.03;13.23;;;;;;;;;;5034524;28;20436;-76
2021/08/03 05:12:37;;;;;;;22.10;14.90;;;;;;;;;;5034741;28;20450;-76
2021/08/03 05:15:03;;;;;;;18.30;14.37;;;;;;;;;;5034176;28;20436;-77
2021/08/03 05:17:31;;;;;;;15.53;12.77;;;;;;;;;;5034379;28;20446;-76
2021/08/03 05:19:57;;;;;;;19.50;13.50;;;;;;;;;;5034482;28;20383;-77
2021/08/03 05:22:23;;;;;;;18.30;15.20;;;;;;;;;;5034258;28;20757;-78
2021/08/03 05:24:49;;;;;;;18.50;13.67;;;;;;;;;;5033985;28;20432;-77
2021/08/03 05:27:15;;;;;;;15.17;13.57;;;;;;;;;;5034380;28;20428;-77
2021/08/03 05:29:41;;;;;;;14.63;13.07;;;;;;;;;;5034318;28;20409;-77
2021/08/03 05:32:07;;;;;;;18.90;13.83;;;;;;;;;;5034157;28;20948;-77
2021/08/03 05:34:33;;;;;;;15.40;12.70;;;;;;;;;;5033759;28;20433;-76
2021/08/03 05:37:02;;;;;;;15.20;12.47;;;;;;;;;;5032497;28;20579;-77
2021/08/03 05:39:28;;;;;;;15.53;13.40;;;;;;;;;;5034008;28;20408;-76
2021/08/03 05:41:54;;;;;;;12.57;11.33;;;;;;;;;;5033347;28;20415;-76
2021/08/03 05:44:20;;;;;;;12.43;11.23;;;;;;;;;;5033510;28;20488;-77
2021/08/03 05:46:46;;;;;;;13.20;11.80;;;;;;;;;;5033890;28;20890;-76
2021/08/03 05:49:12;;;;;;;13.43;11.27;;;;;;;;;;5033678;28;20492;-77
2021/08/03 05:51:38;;;;;;;12.57;11.27;;;;;;;;;;5033714;28;20459;-77
2021/08/03 05:54:04;;;;;;;14.03;11.40;;;;;;;;;;5033443;28;20470;-78
2021/08/03 05:56:31;;;;;;;14.07;12.67;;;;;;;;;;5033638;28;20807;-78
2021/08/03 05:58:57;;;;;;;16.13;12.20;;;;;;;;;;5033561;28;20954;-79
2021/08/03 06:01:23;;;;;;;14.80;13.00;;;;;;;;;;5031710;28;20417;-78
2021/08/03 06:03:49;;;;;;;12.63;11.40;;;;;;;;;;5032892;28;20417;-78
2021/08/03 06:06:16;;;;;;;14.87;13.07;;;;;;;;;;5031769;28;20452;-80
2021/08/03 06:08:43;;;;;;;22.60;14.00;;;;;;;;;;5033354;28;20417;-77
2021/08/03 06:11:11;;;;;;;15.63;14.00;;;;;;;;;;5033337;28;20913;-78
2021/08/03 06:13:38;;;;;;;15.67;14.10;;;;;;;;;;5031518;28;20428;-77
2021/08/03 06:16:06;;;;;;;14.73;13.20;;;;;;;;;;5035622;28;20503;-77
2021/08/03 06:18:36;;;;;;;14.90;12.77;;;;;;;;;;5033191;28;20770;-77
2021/08/03 06:21:02;;;;;;;19.57;14.40;;;;;;;;;;5033402;28;20452;-77
2021/08/03 06:23:28;;;;;;;15.80;14.17;;;;;;;;;;5032703;28;20409;-77
2021/08/03 06:25:58;;;;;;;16.00;13.33;;;;;;;;;;5033032;28;20464;-78
2021/08/03 06:28:24;;;;;;;14.90;13.33;;;;;;;;;;5032119;28;20417;-77
2021/08/03 06:30:51;;;;;;;14.93;13.30;;;;;;;;;;5033256;28;20428;-77
2021/08/03 06:33:21;;;;;;;19.23;13.47;;;;;;;;;;5031479;28;20409;-78
2021/08/03 06:35:48;;;;;;;15.03;11.83;;;;;;;;;;5033016;28;20435;-77
2021/08/03 06:38:14;;;;;;;12.73;11.43;;;;;;;;;;5033157;28;20534;-77
2021/08/03 06:40:46;;;;;;;13.93;12.00;;;;;;;;;;5033027;28;20822;-77
2021/08/03 06:43:16;;;;;;;12.33;11.20;;;;;;;;;;5031552;28;20759;-79
2021/08/03 06:45:42;;;;;;;13.07;11.70;;;;;;;;;;5032766;28;20436;-78
2021/08/03 06:48:10;;;;;;;15.63;12.20;;;;;;;;;;5033233;28;20504;-77
2021/08/03 06:50:45;;;;;;;14.20;12.80;;;;;;;;;;5032875;28;20409;-77
2021/08/03 06:53:11;;;;;;;15.23;11.70;;;;;;;;;;5033994;28;20379;-79
2021/08/03 06:55:42;;;;;;;13.93;11.80;;;;;;;;;;5035490;28;20882;-77
2021/08/03 06:58:10;;;;;;;15.67;12.30;;;;;;;;;;5037074;28;20456;-77
2021/08/03 07:00:37;;;;;;;14.80;11.37;;;;;;;;;;5036879;28;20409;-77
2021/08/03 07:03:04;;;;;;;11.03;9.93;;;;;;;;;;5036831;28;21491;-78
2021/08/03 07:05:34;;;;;;;12.87;10.30;;;;;;;;;;5036781;28;20433;-78
2021/08/03 07:08:01;;;;;;;10.60;9.40;;;;;;;;;;5036798;28;20413;-77
2021/08/03 07:10:28;;;;;;;12.87;10.57;;;;;;;;;;5035533;28;20515;-77
2021/08/03 07:12:54;;;;;;;12.23;11.03;;;;;;;;;;5034822;28;20971;-77
2021/08/03 07:15:21;;;;;;;12.53;10.83;;;;;;;;;;5036603;28;20511;-78
2021/08/03 07:17:48;;;;;;;13.10;10.77;;;;;;;;;;5036824;28;20484;-77
2021/08/03 07:20:15;;;;;;;13.00;11.70;;;;;;;;;;5036833;28;20413;-78
2021/08/03 07:22:41;;;;;;;12.73;11.10;;;;;;;;;;5036707;28;20442;-79
2021/08/03 07:25:08;;;;;;;10.80;9.73;;;;;;;;;;5036289;28;20730;-80
2021/08/03 07:27:34;;;;;;;10.00;8.87;;;;;;;;;;5036212;28;20411;-80
2021/08/03 07:30:00;;;;;;;11.10;8.30;;;;;;;;;;5035245;28;20466;-81
2021/08/03 07:32:26;;;;;;;9.30;8.30;;;;;;;;;;5035827;28;20409;-81
2021/08/03 07:34:52;;;;;;;9.70;8.70;;;;;;;;;;5035032;28;20507;-80
2021/08/03 07:37:18;;;;;;;9.93;8.90;;;;;;;;;;5035658;28;20512;-80
2021/08/03 07:39:44;;;;;;;12.73;8.50;;;;;;;;;;5036192;28;20413;-79
2021/08/03 07:42:10;;;;;;;14.33;9.37;;;;;;;;;;5034534;28;20849;-80
2021/08/03 07:44:37;;;;;;;11.13;8.10;;;;;;;;;;5035806;28;20439;-80
2021/08/03 07:47:04;;;;;;;9.90;7.70;;;;;;;;;;5036403;28;20487;-79
2021/08/03 07:49:30;;;;;;;9.87;8.87;;;;;;;;;;5034822;28;20413;-80
2021/08/03 07:51:57;;;;;;;10.73;9.73;;;;;;;;;;5036067;28;20459;-80
2021/08/03 07:54:23;;;;;;;9.90;9.00;;;;;;;;;;5035379;28;20479;-80
2021/08/03 07:56:49;;;;;;;9.60;8.67;;;;;;;;;;5035968;28;20827;-80
2021/08/03 07:59:15;;;;;;;11.10;9.40;;;;;;;;;;5034631;28;20395;-81
2021/08/03 08:01:41;;;;;;;9.57;8.57;;;;;;;;;;5035954;28;20420;-80
2021/08/03 08:04:07;;;;;;;14.40;10.10;;;;;;;;;;5035214;28;20482;-80
2021/08/03 08:06:33;;;;;;;8.90;8.00;;;;;;;;;;5033995;28;20407;-80
2021/08/03 08:08:59;;;;;;;9.00;7.77;;;;;;;;;;5034727;28;20868;-80
2021/08/03 08:11:25;;;;;;;10.70;8.90;;;;;;;;;;5034677;28;20413;-80
2021/08/03 08:13:51;;;;;;;11.10;8.47;;;;;;;;;;5035288;28;20398;-80
2021/08/03 08:16:17;;;;;;;14.10;10.27;;;;;;;;;;5034403;28;20422;-80
2021/08/03 08:18:43;;;;;;;9.30;7.67;;;;;;;;;;5035402;28;20450;-80
2021/08/03 08:21:09;;;;;;;11.10;7.83;;;;;;;;;;5035624;28;20413;-81
2021/08/03 08:23:35;;;;;;;8.47;7.77;;;;;;;;;;5035168;28;20840;-79
2021/08/03 08:26:02;;;;;;;9.47;8.10;;;;;;;;;;5035450;28;20819;-80
2021/08/03 08:28:28;;;;;;;8.63;7.77;;;;;;;;;;5035183;28;20449;-80
2021/08/03 08:30:54;;;;;;;9.27;7.70;;;;;;;;;;5035260;28;20417;-80
2021/08/03 08:33:20;;;;;;;8.77;7.97;;;;;;;;;;5035045;28;20474;-80
2021/08/03 08:35:46;;;;;;;8.23;7.43;;;;;;;;;;5035098;28;20471;-81
2021/08/03 08:38:13;;;;;;;8.20;7.40;;;;;;;;;;5035418;28;20439;-81
2021/08/03 08:40:39;;;;;;;10.40;8.43;;;;;;;;;;5033954;28;20467;-79
2021/08/03 08:43:05;;;;;;;9.23;6.47;;;;;;;;;;5035004;28;20395;-80
2021/08/03 08:45:31;;;;;;;7.07;6.37;;;;;;;;;;5035070;28;20805;-80
2021/08/03 08:47:58;;;;;;;8.43;5.90;;;;;;;;;;5035003;28;20387;-80
2021/08/03 08:50:25;;;;;;;6.23;5.43;;;;;;;;;;5034784;28;20401;-79
2021/08/03 08:52:53;;;;;;;8.37;6.70;;;;;;;;;;5034484;28;20399;-80
2021/08/03 08:55:20;;;;;;;7.30;5.77;;;;;;;;;;5034541;28;20497;-79
2021/08/03 08:57:47;;;;;;;6.80;5.27;;;;;;;;;;5034737;28;20537;-79
2021/08/03 09:00:14;;;;;;;5.90;5.10;;;;;;;;;;5034837;28;20831;-80
2021/08/03 09:02:44;;;;;;;6.33;5.70;;;;;;;;;;5034559;28;20497;-80
2021/08/03 09:05:14;;;;;;;5.17;4.67;;;;;;;;;;5034499;28;20429;-80
2021/08/03 09:07:48;;;;;;;7.57;5.50;;;;;;;;;;5034944;28;20375;-80
2021/08/03 09:10:48;;;;;;;6.90;6.20;;;;;;;;;;5034682;28;20405;-80
2021/08/03 09:13:21;;;;;;;9.50;7.57;;;;;;;;;;5022513;28;20425;-80
2021/08/03 09:15:55;;;;;;;9.80;7.57;;;;;;;;;;5034003;28;20491;-80
2021/08/03 09:18:25;;;;;;;10.67;7.40;;;;;;;;;;5033658;28;20460;-81
2021/08/03 09:20:50;;;;;;;10.80;8.33;;;;;;;;;;5034224;28;20380;-80
2021/08/03 09:23:17;;;;;;;8.00;6.40;;;;;;;;;;5034025;28;20471;-80
2021/08/03 09:25:54;;;;;;;11.00;7.80;;;;;;;;;;5034275;28;20423;-80
2021/08/03 09:28:20;;;;;;;10.50;6.57;;;;;;;;;;5033126;28;20413;-80
2021/08/03 09:30:46;;;;;;;8.67;7.43;;;;;;;;;;5034139;28;20417;-79
2021/08/03 09:33:20;;;;;;;8.17;7.37;;;;;;;;;;5032804;28;20471;-79
2021/08/03 09:35:46;;;;;;;8.80;6.17;;;;;;;;;;5034043;28;20441;-81
2021/08/03 09:38:16;;;;;;;10.60;7.20;;;;;;;;;;5032755;28;20881;-80
2021/08/03 09:40:42;;;;;;;9.50;5.87;;;;;;;;;;5034206;28;20527;-80
2021/08/03 09:43:12;;;;;;;7.70;6.03;;;;;;;;;;5033617;28;20417;-80
2021/08/03 09:45:44;;;;;;;6.73;5.57;;;;;;;;;;5034026;28;20425;-80
2021/08/03 09:48:20;;;;;;;8.93;6.23;;;;;;;;;;5032569;28;20884;-81
2021/08/03 09:51:01;;;;;;;5.63;5.13;;;;;;;;;;5032539;28;20443;-81
2021/08/03 09:53:51;;;;;;;8.13;7.20;;;;;;;;;;5032027;28;20802;-80
2021/08/03 09:56:23;;;;;;;7.53;6.20;;;;;;;;;;5030829;28;20449;-80
2021/08/03 09:58:56;;;;;;;6.70;6.10;;;;;;;;;;5033457;28;20510;-80
2021/08/03 10:01:22;;;;;;;9.00;6.00;;;;;;;;;;5032300;28;20376;-80
2021/08/03 10:03:50;;;;;;;6.67;6.00;;;;;;;;;;5033270;28;20391;-79
2021/08/03 10:06:18;;;;;;;7.83;6.00;;;;;;;;;;5033059;28;20419;-80
2021/08/03 10:08:44;;;;;;;7.13;6.30;;;;;;;;;;5033165;28;20413;-81
2021/08/03 10:11:10;;;;;;;7.40;6.70;;;;;;;;;;5031881;28;20507;-80
2021/08/03 10:13:36;;;;;;;8.13;6.67;;;;;;;;;;5033263;28;20402;-79
2021/08/03 10:16:02;;;;;;;5.60;5.13;;;;;;;;;;5033622;28;20764;-80
2021/08/03 10:18:30;;;;;;;7.33;6.70;;;;;;;;;;5033526;28;20435;-79
2021/08/03 10:20:56;;;;;;;8.40;6.73;;;;;;;;;;5033605;28;20779;-80
2021/08/03 10:23:23;;;;;;;6.40;5.90;;;;;;;;;;5031638;28;20801;-79
2021/08/03 10:25:49;;;;;;;7.50;5.50;;;;;;;;;;5033300;28;20469;-79
2021/08/03 10:28:25;;;;;;;7.53;6.63;;;;;;;;;;5032976;28;20415;-79
2021/08/03 10:30:52;;;;;;;6.67;5.70;;;;;;;;;;5033116;28;20390;-78
2021/08/03 10:33:36;;;;;;;6.87;6.10;;;;;;;;;;5031040;28;20388;-79
2021/08/03 10:36:02;;;;;;;6.33;5.83;;;;;;;;;;5033000;28;20470;-80
2021/08/03 10:38:30;;;;;;;5.23;4.77;;;;;;;;;;5032790;28;20487;-79
2021/08/03 10:44:03;;;;;;;5.50;4.97;;;;;;;;;;5032841;28;20747;-78
2021/08/03 10:46:30;;;;;;;6.93;5.40;;;;;;;;;;5031854;28;20437;-79
2021/08/03 10:48:56;;;;;;;6.37;5.73;;;;;;;;;;5032870;28;21295;-79
2021/08/03 10:51:24;;;;;;;5.30;4.90;;;;;;;;;;5033048;28;20734;-78
2021/08/03 10:54:11;;;;;;;6.20;5.60;;;;;;;;;;5032619;28;20501;-79
2021/08/03 10:56:58;;;;;;;5.83;4.80;;;;;;;;;;5033027;28;20409;-80
2021/08/03 10:59:37;;;;;;;5.27;4.87;;;;;;;;;;5032925;28;20771;-78
2021/08/03 11:02:26;;;;;;;4.70;4.30;;;;;;;;;;5032810;28;20405;-78
2021/08/03 11:04:52;;;;;;;4.90;4.37;;;;;;;;;;5032250;28;20527;-79
2021/08/03 11:07:28;;;;;;;4.80;4.40;;;;;;;;;;5032747;28;20537;-78
2021/08/03 11:10:01;;;;;;;9.27;4.43;;;;;;;;;;5032614;28;20417;-79
2021/08/03 11:12:47;;;;;;;5.63;4.17;;;;;;;;;;5032726;28;20466;-78
2021/08/03 11:15:22;;;;;;;7.60;4.33;;;;;;;;;;5032694;28;20428;-79
2021/08/03 11:17:51;;;;;;;5.20;4.60;;;;;;;;;;5032508;28;20458;-79
2021/08/03 11:20:36;;;;;;;6.20;4.60;;;;;;;;;;5032669;28;20397;-80
2021/08/03 11:23:03;;;;;;;5.30;4.70;;;;;;;;;;5032551;28;20447;-78
2021/08/03 11:25:29;;;;;;;4.87;4.47;;;;;;;;;;5032825;28;20407;-80
2021/08/03 11:27:55;;;;;;;6.90;4.10;;;;;;;;;;5032531;28;20898;-80
2021/08/03 11:30:21;;;;;;;5.77;4.63;;;;;;;;;;5032978;28;20772;-80
2021/08/03 11:32:48;;;;;;;5.00;3.70;;;;;;;;;;5031429;28;20417;-80
2021/08/03 11:35:25;;;;;;;4.60;4.20;;;;;;;;;;5031424;28;20453;-79
2021/08/03 11:37:51;;;;;;;5.40;4.20;;;;;;;;;;5032694;28;20547;-79
2021/08/03 11:40:17;;;;;;;4.87;4.37;;;;;;;;;;5032731;28;20422;-80
2021/08/03 11:42:45;;;;;;;3.57;3.27;;;;;;;;;;5036317;28;20461;-80
2021/08/03 11:45:12;;;;;;;3.80;3.50;;;;;;;;;;5036110;28;20478;-80
2021/08/03 11:48:02;;;;;;;3.50;2.80;;;;;;;;;;5036132;28;20384;-80
2021/08/03 11:50:31;;;;;;;3.77;3.47;;;;;;;;;;5033077;28;20420;-80
2021/08/03 11:53:04;;;;;;;3.13;2.83;;;;;;;;;;5035787;28;20484;-80
2021/08/03 11:55:30;;;;;;;3.20;2.90;;;;;;;;;;5035774;28;20428;-80
2021/08/03 11:57:56;;;;;;;3.50;3.10;;;;;;;;;;5035759;28;20427;-80
2021/08/03 12:00:23;;;;;;;3.90;3.27;;;;;;;;;;5035991;28;20525;-80
2021/08/03 12:02:50;;;;;;;3.90;3.60;;;;;;;;;;5035378;28;20413;-79
2021/08/03 12:05:20;;;;;;;3.20;2.90;;;;;;;;;;5035639;28;20421;-80
2021/08/03 12:07:51;;;;;;;3.00;2.80;;;;;;;;;;5035755;28;20508;-80
2021/08/03 12:10:17;;;;;;;2.90;2.67;;;;;;;;;;5035567;28;20431;-80
2021/08/03 12:12:44;;;;;;;4.00;2.97;;;;;;;;;;5035398;28;20413;-81
2021/08/03 12:15:12;;;;;;;3.00;2.70;;;;;;;;;;5035578;28;20768;-79
2021/08/03 12:17:38;;;;;;;3.07;2.83;;;;;;;;;;5035566;28;20492;-80
2021/08/03 12:20:39;;;;;;;3.43;3.13;;;;;;;;;;5035638;28;20418;-80
2021/08/03 12:23:08;;;;;;;3.07;2.87;;;;;;;;;;5013444;28;20429;-81
2021/08/03 12:25:46;;;;;;;3.30;2.50;;;;;;;;;;5031407;28;20440;-81
2021/08/03 12:28:13;;;;;;;2.63;2.43;;;;;;;;;;5035436;28;20491;-79
2021/08/03 12:30:40;;;;;;;3.30;2.73;;;;;;;;;;5035439;28;20445;-80
2021/08/03 12:33:06;;;;;;;3.17;2.97;;;;;;;;;;5035162;28;20384;-80
2021/08/03 12:35:38;;;;;;;3.40;3.10;;;;;;;;;;5035367;28;20487;-81
2021/08/03 12:38:31;;;;;;;3.43;3.00;;;;;;;;;;5035338;28;20468;-80
2021/08/03 12:40:58;;;;;;;4.10;3.70;;;;;;;;;;5034380;28;20438;-80
2021/08/03 12:43:50;;;;;;;3.30;3.00;;;;;;;;;;5035167;28;20407;-79
2021/08/03 12:46:16;;;;;;;3.63;3.23;;;;;;;;;;5033917;28;20976;-81
2021/08/03 12:48:51;;;;;;;3.90;3.60;;;;;;;;;;5037563;28;20853;-79
2021/08/03 12:51:27;;;;;;;3.80;3.50;;;;;;;;;;5015459;28;20446;-80
2021/08/03 12:53:53;;;;;;;3.63;3.33;;;;;;;;;;5033067;28;20391;-81
2021/08/03 12:56:28;;;;;;;5.27;3.43;;;;;;;;;;5031497;28;20833;-80
2021/08/03 12:58:55;;;;;;;4.53;4.13;;;;;;;;;;5032887;28;20545;-82
2021/08/03 13:01:23;;;;;;;4.43;4.03;;;;;;;;;;5032920;28;20417;-81
2021/08/03 13:03:49;;;;;;;4.37;3.97;;;;;;;;;;5031581;28;20399;-81
2021/08/03 13:06:15;;;;;;;4.00;3.70;;;;;;;;;;5032978;28;20502;-81
2021/08/03 13:08:42;;;;;;;6.87;4.27;;;;;;;;;;5033607;28;20437;-81
2021/08/03 13:11:11;;;;;;;4.67;4.20;;;;;;;;;;5032715;28;20774;-80
2021/08/03 13:13:37;;;;;;;4.87;3.87;;;;;;;;;;5033198;28;20407;-79
2021/08/03 13:16:04;;;;;;;4.13;3.83;;;;;;;;;;5031630;28;20518;-80
2021/08/03 13:18:31;;;;;;;4.83;4.30;;;;;;;;;;5032655;28;20465;-81
2021/08/03 13:20:58;;;;;;;4.57;4.17;;;;;;;;;;5037306;28;20399;-82
2021/08/03 13:23:24;;;;;;;5.17;4.60;;;;;;;;;;5041099;28;20423;-83
2021/08/03 13:26:13;;;;;;;4.60;4.20;;;;;;;;;;5099155;22;20495;-82
2021/08/03 13:28:41;;;;;;;3.87;3.57;;;;;;;;;;5011859;28;20911;-81
2021/08/03 13:31:29;;;;;;;4.43;4.03;;;;;;;;;;5012088;28;20408;-82
2021/08/03 13:34:08;;;;;;;4.60;4.17;;;;;;;;;;5014007;28;20492;-82
2021/08/03 13:36:39;;;;;;;4.00;3.67;;;;;;;;;;4993176;28;20768;-80
2021/08/03 13:39:08;;;;;;;7.27;2.93;;;;;;;;;;4994731;28;20409;-82
2021/08/03 13:41:48;;;;;;;4.23;3.33;;;;;;;;;;4993933;28;20763;-80
2021/08/03 13:44:33;;;;;;;3.50;3.20;;;;;;;;;;4994133;28;20404;-81
2021/08/03 13:47:17;;;;;;;;;;;;;;;;;;;;;
2021/08/03 13:49:54;;;;;;;3.93;3.03;;;;;;;;;;4991786;28;20425;-81
2021/08/03 13:52:25;;;;;;;3.63;3.00;;;;;;;;;;4975661;28;20961;-80
2021/08/03 13:55:01;;;;;;;3.60;2.50;;;;;;;;;;4991725;28;20577;-80
2021/08/03 13:57:30;;;;;;;7.10;2.50;;;;;;;;;;4992334;28;20528;-80
2021/08/03 14:00:05;;;;;;;2.93;2.73;;;;;;;;;;4975721;28;20445;-81
2021/08/03 14:02:37;;;;;;;3.47;2.53;;;;;;;;;;4991447;28;20446;-82
2021/08/03 14:05:22;;;;;;;2.47;2.27;;;;;;;;;;4975556;28;20993;-80
2021/08/03 14:08:14;;;;;;;2.37;1.90;;;;;;;;;;4991966;28;20576;-80
2021/08/03 14:11:11;;;;;;;3.93;2.03;;;;;;;;;;4992033;28;20430;-80
2021/08/03 14:14:02;;;;;;;;;;;;;;;;;;;;;
2021/08/03 14:16:57;;;;;;;2.50;1.97;;;;;;;;;;4953118;28;20454;-80
2021/08/03 14:25:50;;;;;;;1.90;1.67;;;;;;;;;;4877153;29;20580;-81
2021/08/03 14:28:48;;;;;;;;;;;;;;;;;;;;;
2021/08/03 14:31:30;;;;;;;2.30;1.60;;;;;;;;;;4952944;29;20423;-80
2021/08/03 14:34:35;;;;;;;;;;;;;;;;;;;;;
2021/08/03 14:40:51;;;;;;;1.73;1.63;;;;;;;;;;4971817;28;20925;-80
2021/08/03 14:43:23;;;;;;;2.10;1.97;;;;;;;;;;4971802;28;20411;-79
2021/08/03 14:46:26;;;;;;;2.17;1.93;;;;;;;;;;5021502;23;20503;-80
2021/08/03 14:51:55;;;;;;;2.50;2.30;;;;;;;;;;5032732;28;20505;-81
2021/08/03 14:57:28;;;;;;;3.00;2.70;;;;;;;;;;5031383;28;20461;-82
2021/08/03 15:03:21;;;;;;;3.43;2.43;;;;;;;;;;4925144;29;20440;-79
2021/08/03 15:06:00;;;;;;;6.07;2.60;;;;;;;;;;5026242;22;20463;-81
2021/08/03 15:08:26;;;;;;;3.57;2.47;;;;;;;;;;5032641;28;20472;-82
2021/08/03 15:10:52;;;;;;;3.67;2.90;;;;;;;;;;5032941;28;20520;-82
2021/08/03 15:13:18;;;;;;;3.67;2.90;;;;;;;;;;5032534;28;20386;-81